LFSTLFLS

Guest
Details From LFST - Entzheim
To LFLS - St Geoirs
Flight Number -
Tags Generated
Created
Modified
Stats Distance 212 nm / 393 km
Max Altitude 0 ft / 0 m
Waypoints 2
Social Downloads 0
Likes 0
Share VATSIM

Download

Looking for another format? Having issues loading an existing format? Contact us
Advertisement - Login to hide

Notes

Generated

Route

LFST LFLS

ID Type Via Altitude Latitude Longitude Leg Dist Tot Dist Heading (true) Name
O LFST APT - 0 ft / 0 m 48.53118˚ 7.61607˚ - 0 nm - -
O LFLS APT - 0 ft / 0 m 45.36087˚ 5.32881˚ 212 nm 212 nm 207° / 205° St Geoirs

Altitude Profile

Advertisement - Login to hide

Weather


0- 5 10 15 20 25 30 35+ Temperature / ° C

Clouds and Precipitation
Forecast for 2018-05-23 00:00 UTC. Updated an hour ago

Ground ~20,000 ft ~40,000 ft Winds

LFST

Details ICAO LFST (SXB)
Name Entzheim
Region France
Timezone Europe/Paris (UTC+2.0)
Stats Elevation 504 ft / 154 m (AMSL)
Location 48.538335° 7.628265°
Runways 1
Magnetic Variation 2.159° E

METAR

LFST 230000Z AUTO VRB02KT CAVOK 16/14 Q1015 NOSIG

Decode

TAF

TAF LFST 222300Z 2300/2324 34005KT CAVOK PROB30 TEMPO 2302/2306 BKN005 TEMPO 2310/2318 FEW050CB PROB30 TEMPO 2312/2318 VRB10G20KT 3000 TSRA SCT050CB

Decode

Departure Runways

ID Width Length Bearing (true) Bearing (mag) Surface Threshold Offset Overrun Length
05 148 ft / 45 m 7,899 ft / 2,408 m 48.60° 46.44° Asphalt 0 ft / 0 m 860 ft / 262 m
23 148 ft / 45 m 7,899 ft / 2,408 m 228.62° 226.46° Asphalt 0 ft / 0 m 902 ft / 275 m

LFLS

Details ICAO LFLS (GNB)
Name St Geoirs
Region France
Timezone Europe/Paris (UTC+2.0)
Stats Elevation 1,302 ft / 397 m (AMSL)
Location 45.361183° 5.327528°
Runways 3
Magnetic Variation 1.607° E

METAR

LFLS 230000Z AUTO 10004KT 5000 BR FEW015 BKN096 OVC110 14/13 Q1016

Decode

TAF

TAF TAF LFLS 221858Z 2218/2315 CNL

Decode

Destination Runways

ID Width Length Bearing (true) Bearing (mag) Surface Threshold Offset Overrun Length
09 148 ft / 45 m 9,979 ft / 3,042 m 90.22° 88.61° Asphalt 0 ft / 0 m 0 ft / 0 m
09R 102 ft / 31 m 2,951 ft / 899 m 90.20° 88.59° Grass 0 ft / 0 m 0 ft / 0 m
16 82 ft / 25 m 1,640 ft / 500 m 160.10° 158.49° Grass 0 ft / 0 m 0 ft / 0 m
27 148 ft / 45 m 9,979 ft / 3,042 m 270.24° 268.63° Asphalt 0 ft / 0 m 0 ft / 0 m
27L 102 ft / 31 m 2,951 ft / 899 m 270.20° 268.59° Grass 0 ft / 0 m 0 ft / 0 m
34 82 ft / 25 m 1,640 ft / 500 m 340.10° 338.49° Grass 0 ft / 0 m 0 ft / 0 m

Approach Navaids

Runway Type Ident Frequency Range Bearing (true) Bearing (mag) Slope Elevation
09 Localiser SG 109.30 MHz 27 nm / 50 km 90.23° 88.62° - 1,302 ft / 397 m (AMSL)
09 Glidescope SG 109.30 MHz 27 nm / 50 km 90.23° 88.62° 3.00° 1,302 ft / 397 m (AMSL)
09 DME SG 109.30 MHz 27 nm / 50 km - - - 1,302 ft / 397 m (AMSL)

Popular Alternatives